Time;durP1;ratioP1;P1;durP2;ratioP2;P2;SDS_P1;SDS_P2;PMS_P1;PMS_P2;Temp;Humidity;BMP_temperature;BMP_pressure;BME280_temperature;BME280_humidity;BME280_pressure;Samples;Min_cycle;Max_cycle;Signal;HPM_P1;HPM_P2
2022/07/22 00:00:48;;;;;;;11.95;2.80;;;;;;;;;;5011351;28;97422;-73
2022/07/22 00:03:15;;;;;;;9.18;3.05;;;;;;;;;;5012085;28;95073;-73
2022/07/22 00:05:42;;;;;;;10.35;3.00;;;;;;;;;;4993317;28;97407;-73
2022/07/22 00:08:08;;;;;;;14.48;3.17;;;;;;;;;;5011451;28;97506;-73
2022/07/22 00:10:35;;;;;;;12.05;2.78;;;;;;;;;;5013265;28;96729;-75
2022/07/22 00:13:01;;;;;;;13.02;3.22;;;;;;;;;;5011167;28;98017;-73
2022/07/22 00:15:28;;;;;;;9.18;2.78;;;;;;;;;;5011928;28;95417;-73
2022/07/22 00:17:54;;;;;;;11.23;2.85;;;;;;;;;;5011949;28;97257;-73
2022/07/22 00:20:21;;;;;;;11.75;3.63;;;;;;;;;;5019740;28;97755;-73
2022/07/22 00:22:47;;;;;;;8.15;2.70;;;;;;;;;;5031857;28;95292;-73
2022/07/22 00:25:14;;;;;;;7.78;2.80;;;;;;;;;;5031452;28;97354;-73
2022/07/22 00:27:41;;;;;;;8.15;2.88;;;;;;;;;;5031635;28;98012;-74
2022/07/22 00:30:07;;;;;;;10.82;2.78;;;;;;;;;;5020948;28;96463;-73
2022/07/22 00:32:35;;;;;;;13.13;2.85;;;;;;;;;;5013782;28;97285;-73
2022/07/22 00:35:02;;;;;;;8.10;3.10;;;;;;;;;;5021935;28;96051;-73
2022/07/22 00:37:29;;;;;;;10.05;2.70;;;;;;;;;;5013690;28;97297;-73
2022/07/22 00:39:56;;;;;;;7.35;2.58;;;;;;;;;;5007994;28;97748;-73
2022/07/22 00:42:23;;;;;;;12.55;3.25;;;;;;;;;;5014457;28;95508;-73
2022/07/22 00:44:49;;;;;;;14.13;3.20;;;;;;;;;;5014933;28;96330;-74
2022/07/22 00:47:16;;;;;;;11.95;3.08;;;;;;;;;;5013974;28;96777;-73
2022/07/22 00:49:42;;;;;;;6.60;2.55;;;;;;;;;;5015058;28;95319;-73
2022/07/22 00:52:09;;;;;;;12.85;2.75;;;;;;;;;;5014238;28;96550;-73
2022/07/22 00:54:36;;;;;;;9.50;2.97;;;;;;;;;;5017288;28;97929;-73
2022/07/22 00:57:03;;;;;;;13.25;3.05;;;;;;;;;;5014501;28;97319;-73
2022/07/22 00:59:29;;;;;;;10.68;3.05;;;;;;;;;;5014564;28;98186;-73
2022/07/22 01:01:56;;;;;;;14.15;2.90;;;;;;;;;;5020872;28;95510;-73
2022/07/22 01:04:23;;;;;;;8.07;2.90;;;;;;;;;;5014115;28;96491;-73
2022/07/22 01:06:49;;;;;;;8.70;2.53;;;;;;;;;;5033849;28;96786;-73
2022/07/22 01:09:16;;;;;;;9.52;2.70;;;;;;;;;;5000823;28;95199;-73
2022/07/22 01:11:42;;;;;;;8.27;2.58;;;;;;;;;;5013660;28;97521;-72
2022/07/22 01:14:09;;;;;;;12.25;2.90;;;;;;;;;;5015386;28;96635;-73
2022/07/22 01:16:36;;;;;;;6.78;2.40;;;;;;;;;;5016914;28;95457;-73
2022/07/22 01:19:03;;;;;;;10.75;2.50;;;;;;;;;;5014262;28;96740;-73
2022/07/22 01:21:29;;;;;;;8.15;2.60;;;;;;;;;;5023431;28;96741;-74
2022/07/22 01:23:55;;;;;;;7.85;2.45;;;;;;;;;;4998221;28;97167;-73
2022/07/22 01:26:22;;;;;;;9.38;2.72;;;;;;;;;;5013631;28;97776;-73
2022/07/22 01:28:49;;;;;;;11.05;2.63;;;;;;;;;;5013389;28;95521;-73
2022/07/22 01:31:15;;;;;;;10.18;2.20;;;;;;;;;;5022955;28;97362;-73
2022/07/22 01:33:42;;;;;;;6.88;2.67;;;;;;;;;;5033971;28;97603;-73
2022/07/22 01:36:09;;;;;;;8.15;2.10;;;;;;;;;;5034184;28;95323;-74
2022/07/22 01:38:35;;;;;;;9.77;2.50;;;;;;;;;;5029187;28;97271;-73
2022/07/22 01:41:02;;;;;;;13.05;2.60;;;;;;;;;;5013349;28;96406;-73
2022/07/22 01:43:29;;;;;;;10.50;2.40;;;;;;;;;;5028121;28;96316;-73
2022/07/22 01:45:55;;;;;;;9.15;2.58;;;;;;;;;;5025853;28;97349;-73
2022/07/22 01:48:22;;;;;;;6.25;2.10;;;;;;;;;;5012560;28;95394;-73
2022/07/22 01:50:49;;;;;;;9.52;2.70;;;;;;;;;;5018295;28;96995;-73
2022/07/22 01:53:15;;;;;;;7.88;2.25;;;;;;;;;;5014458;28;97421;-74
2022/07/22 01:55:42;;;;;;;10.18;2.50;;;;;;;;;;5014227;28;95464;-73
2022/07/22 01:58:09;;;;;;;8.48;2.30;;;;;;;;;;5012621;28;96834;-73
2022/07/22 02:00:35;;;;;;;13.05;2.38;;;;;;;;;;4999620;28;97920;-73
2022/07/22 02:03:01;;;;;;;11.23;2.40;;;;;;;;;;5014081;28;96916;-73
2022/07/22 02:05:29;;;;;;;10.13;2.75;;;;;;;;;;5012922;28;97872;-73
2022/07/22 02:08:00;;;;;;;8.43;2.70;;;;;;;;;;5017679;28;96263;-74
2022/07/22 02:10:26;;;;;;;8.27;2.63;;;;;;;;;;5021761;28;96945;-73
2022/07/22 02:12:53;;;;;;;9.43;2.80;;;;;;;;;;5013867;28;97712;-73
2022/07/22 02:15:19;;;;;;;10.85;2.83;;;;;;;;;;5005145;28;95357;-73
2022/07/22 02:17:46;;;;;;;10.20;2.42;;;;;;;;;;5011442;28;97467;-73
2022/07/22 02:20:13;;;;;;;10.70;2.92;;;;;;;;;;5016679;28;96538;-73
2022/07/22 02:22:40;;;;;;;9.88;2.47;;;;;;;;;;5012302;28;97546;-73
2022/07/22 02:25:07;;;;;;;9.90;2.97;;;;;;;;;;5022544;28;95373;-73
2022/07/22 02:27:34;;;;;;;7.13;2.33;;;;;;;;;;5031592;28;96761;-73
2022/07/22 02:30:00;;;;;;;10.18;2.83;;;;;;;;;;5008538;28;96119;-73
2022/07/22 02:32:27;;;;;;;13.00;3.05;;;;;;;;;;5028331;28;98014;-73
2022/07/22 02:34:53;;;;;;;9.52;2.50;;;;;;;;;;5012804;28;95236;-73
2022/07/22 02:37:20;;;;;;;11.40;3.10;;;;;;;;;;5013514;28;96842;-73
2022/07/22 02:39:46;;;;;;;8.18;3.00;;;;;;;;;;5012195;28;97697;-74
2022/07/22 02:42:13;;;;;;;11.05;2.80;;;;;;;;;;5016572;28;96120;-73
2022/07/22 02:44:40;;;;;;;9.90;2.47;;;;;;;;;;4994262;28;97392;-73
2022/07/22 02:47:06;;;;;;;8.32;3.05;;;;;;;;;;5012637;28;95449;-73
2022/07/22 02:49:32;;;;;;;7.13;2.55;;;;;;;;;;5018053;28;97297;-73
2022/07/22 02:51:59;;;;;;;11.13;3.00;;;;;;;;;;5030010;28;97758;-73
2022/07/22 02:54:25;;;;;;;13.43;2.65;;;;;;;;;;5012708;28;96123;-73
2022/07/22 02:56:52;;;;;;;7.90;2.45;;;;;;;;;;5013177;28;97129;-73
2022/07/22 02:59:18;;;;;;;9.43;2.40;;;;;;;;;;5012351;28;97997;-73
2022/07/22 03:01:45;;;;;;;10.82;3.25;;;;;;;;;;4994107;28;95588;-73
2022/07/22 03:04:12;;;;;;;15.38;3.00;;;;;;;;;;5014639;28;97331;-73
2022/07/22 03:06:38;;;;;;;9.43;3.00;;;;;;;;;;5029579;28;95515;-73
2022/07/22 03:09:05;;;;;;;7.65;2.53;;;;;;;;;;5013421;28;95621;-73
2022/07/22 03:11:31;;;;;;;8.88;2.92;;;;;;;;;;5012343;28;97314;-73
2022/07/22 03:13:58;;;;;;;8.80;2.50;;;;;;;;;;5012036;28;95387;-73
2022/07/22 03:16:24;;;;;;;9.13;2.58;;;;;;;;;;4993264;28;97094;-73
2022/07/22 03:18:51;;;;;;;7.45;2.47;;;;;;;;;;5015762;28;97884;-73
2022/07/22 03:21:18;;;;;;;12.07;2.20;;;;;;;;;;5032172;28;95443;-73
2022/07/22 03:23:45;;;;;;;11.52;2.55;;;;;;;;;;5032096;28;97386;-72
2022/07/22 03:26:11;;;;;;;6.75;2.60;;;;;;;;;;5016001;28;97987;-73
2022/07/22 03:28:38;;;;;;;9.65;2.45;;;;;;;;;;5011770;28;97437;-73
2022/07/22 03:31:04;;;;;;;10.40;2.95;;;;;;;;;;5010084;28;97913;-73
2022/07/22 03:33:31;;;;;;;9.55;2.38;;;;;;;;;;5020958;28;96918;-73
2022/07/22 03:35:57;;;;;;;7.05;2.55;;;;;;;;;;5014383;28;97595;-73
2022/07/22 03:38:24;;;;;;;11.98;2.58;;;;;;;;;;5011773;28;97985;-73
2022/07/22 03:40:51;;;;;;;9.50;2.78;;;;;;;;;;5012680;28;95667;-73
2022/07/22 03:43:17;;;;;;;12.30;2.55;;;;;;;;;;4993270;28;96456;-73
2022/07/22 03:45:44;;;;;;;4.10;2.08;;;;;;;;;;5011651;28;97914;-73
2022/07/22 03:48:11;;;;;;;11.25;3.28;;;;;;;;;;5014242;28;95289;-73
2022/07/22 03:50:38;;;;;;;10.60;2.72;;;;;;;;;;5011398;28;97722;-73
2022/07/22 03:53:04;;;;;;;7.30;2.70;;;;;;;;;;5011590;28;95488;-73
2022/07/22 03:55:31;;;;;;;12.30;2.75;;;;;;;;;;5011833;28;97673;-73
2022/07/22 03:57:57;;;;;;;7.85;2.38;;;;;;;;;;5020374;28;97664;-73
2022/07/22 04:00:23;;;;;;;10.15;2.65;;;;;;;;;;5020662;28;95510;-73
2022/07/22 04:02:50;;;;;;;7.10;2.72;;;;;;;;;;5028616;28;97170;-73
2022/07/22 04:05:17;;;;;;;11.02;2.30;;;;;;;;;;5031351;28;97591;-73
2022/07/22 04:07:44;;;;;;;7.53;2.50;;;;;;;;;;5031935;28;95375;-73
2022/07/22 04:10:11;;;;;;;6.38;2.42;;;;;;;;;;5021813;28;97224;-73
2022/07/22 04:12:38;;;;;;;8.80;2.50;;;;;;;;;;5010585;28;95597;-73
2022/07/22 04:15:06;;;;;;;5.22;2.17;;;;;;;;;;5003607;28;97224;-73
2022/07/22 04:17:32;;;;;;;8.75;2.53;;;;;;;;;;5034731;28;97997;-73
2022/07/22 04:20:00;;;;;;;11.07;2.80;;;;;;;;;;5016630;28;95376;-74
2022/07/22 04:22:27;;;;;;;8.10;2.42;;;;;;;;;;5015294;28;96366;-73
2022/07/22 04:24:53;;;;;;;8.00;2.50;;;;;;;;;;5014017;28;97799;-73
2022/07/22 04:27:20;;;;;;;9.05;2.25;;;;;;;;;;5012739;28;95315;-73
2022/07/22 04:29:46;;;;;;;7.70;2.40;;;;;;;;;;5025083;28;97221;-74
2022/07/22 04:32:13;;;;;;;9.52;2.70;;;;;;;;;;5035164;28;95264;-74
2022/07/22 04:34:39;;;;;;;5.53;2.10;;;;;;;;;;5034976;28;97239;-74
2022/07/22 04:37:06;;;;;;;4.25;1.90;;;;;;;;;;5034613;28;97799;-74
2022/07/22 04:39:32;;;;;;;7.53;2.00;;;;;;;;;;5021029;28;96541;-73
2022/07/22 04:41:59;;;;;;;6.13;1.92;;;;;;;;;;5017964;28;95569;-74
2022/07/22 04:44:26;;;;;;;8.60;2.13;;;;;;;;;;5001413;28;96609;-73
2022/07/22 04:46:52;;;;;;;6.72;2.10;;;;;;;;;;5019279;28;95543;-73
2022/07/22 04:49:18;;;;;;;9.23;2.33;;;;;;;;;;5035092;28;96999;-72
2022/07/22 04:51:54;;;;;;;5.80;2.30;;;;;;;;;;5027967;28;97391;-72
2022/07/22 04:54:22;;;;;;;6.55;2.00;;;;;;;;;;5024295;28;95999;-73
2022/07/22 04:56:49;;;;;;;6.53;2.10;;;;;;;;;;5023184;28;97434;-73
2022/07/22 04:59:15;;;;;;;6.20;2.13;;;;;;;;;;5034929;28;95157;-73
2022/07/22 05:01:42;;;;;;;7.43;1.88;;;;;;;;;;5034494;28;96634;-73
2022/07/22 05:04:08;;;;;;;4.72;1.90;;;;;;;;;;5031393;28;97194;-72
2022/07/22 05:06:35;;;;;;;6.85;1.98;;;;;;;;;;5013808;28;95333;-72
2022/07/22 20:04:52;;;;;;;4.20;2.40;;;;;;;;;;5046013;27;95388;-74
2022/07/22 20:07:18;;;;;;;5.93;3.10;;;;;;;;;;5048454;27;97353;-74
2022/07/22 20:09:45;;;;;;;6.47;2.95;;;;;;;;;;5049998;27;95457;-75
2022/07/22 20:12:11;;;;;;;7.03;2.90;;;;;;;;;;5032165;27;96713;-74
2022/07/22 20:14:38;;;;;;;9.75;2.80;;;;;;;;;;5027676;27;97315;-74
2022/07/22 20:17:05;;;;;;;8.40;2.90;;;;;;;;;;5029481;27;95320;-74
2022/07/22 20:19:31;;;;;;;6.55;2.70;;;;;;;;;;5025598;28;96842;-77
2022/07/22 20:21:58;;;;;;;6.30;2.58;;;;;;;;;;5028228;27;97411;-74
2022/07/22 20:24:24;;;;;;;5.60;2.72;;;;;;;;;;5030354;28;95440;-75
2022/07/22 20:26:50;;;;;;;4.53;2.65;;;;;;;;;;5027739;28;97475;-74
2022/07/22 20:29:17;;;;;;;10.20;2.78;;;;;;;;;;5026394;28;95249;-74
2022/07/22 20:31:43;;;;;;;4.93;2.40;;;;;;;;;;5029276;28;96759;-74
2022/07/22 20:34:10;;;;;;;6.07;2.58;;;;;;;;;;5024483;28;97550;-74
2022/07/22 20:36:36;;;;;;;4.05;2.40;;;;;;;;;;5028493;28;95393;-74
2022/07/22 20:39:02;;;;;;;6.20;2.72;;;;;;;;;;5027734;28;96809;-74
2022/07/22 20:41:29;;;;;;;6.00;2.60;;;;;;;;;;5027386;28;97357;-74
2022/07/22 20:43:55;;;;;;;5.25;2.20;;;;;;;;;;5028487;27;95370;-74
2022/07/22 20:46:21;;;;;;;4.75;2.60;;;;;;;;;;5051927;27;96854;-74
2022/07/22 20:48:48;;;;;;;7.30;2.50;;;;;;;;;;5041538;27;96345;-74
2022/07/22 20:51:15;;;;;;;8.52;2.95;;;;;;;;;;5027170;27;96733;-74
2022/07/22 20:53:41;;;;;;;6.45;3.00;;;;;;;;;;5028455;28;97388;-74
2022/07/22 20:56:08;;;;;;;6.38;2.85;;;;;;;;;;5026372;28;95351;-74
2022/07/22 20:58:40;;;;;;;;;;;;;;;;;;5025780;28;96557;-74
2022/07/22 21:01:07;;;;;;;5.13;2.38;;;;;;;;;;5027586;28;126858;-74
2022/07/22 21:03:33;;;;;;;3.58;2.33;;;;;;;;;;5032234;27;97470;-74
2022/07/22 21:06:00;;;;;;;6.63;2.25;;;;;;;;;;5021493;27;97341;-74
2022/07/22 21:08:26;;;;;;;5.65;2.30;;;;;;;;;;5011122;28;97422;-74
2022/07/22 21:10:53;;;;;;;4.40;2.22;;;;;;;;;;5026509;28;96657;-75
2022/07/22 21:13:19;;;;;;;3.22;2.00;;;;;;;;;;5026947;28;97364;-75
2022/07/22 21:15:45;;;;;;;6.30;1.90;;;;;;;;;;5006496;28;95392;-74
2022/07/22 21:18:12;;;;;;;9.65;2.00;;;;;;;;;;4994621;28;96370;-75
2022/07/22 21:20:39;;;;;;;4.18;2.20;;;;;;;;;;5027350;28;96347;-74
2022/07/22 21:23:10;;;;;;;6.57;2.17;;;;;;;;;;5035328;28;95196;-74
2022/07/22 21:25:36;;;;;;;3.70;1.95;;;;;;;;;;5026477;28;96811;-74
2022/07/22 21:28:05;;;;;;;4.10;2.00;;;;;;;;;;5014376;28;97392;-74
2022/07/22 21:30:31;;;;;;;4.47;2.20;;;;;;;;;;5032907;28;95307;-74
2022/07/22 21:32:58;;;;;;;5.10;1.98;;;;;;;;;;5034069;28;97259;-74
2022/07/22 21:35:25;;;;;;;5.15;1.98;;;;;;;;;;5021355;28;95718;-75
2022/07/22 21:37:53;;;;;;;4.75;2.10;;;;;;;;;;4994509;28;97036;-74
2022/07/22 21:40:19;;;;;;;4.55;2.00;;;;;;;;;;5024083;28;97317;-75
2022/07/22 21:42:46;;;;;;;8.30;2.35;;;;;;;;;;5034540;28;95585;-75
2022/07/22 21:45:12;;;;;;;3.20;1.83;;;;;;;;;;5031557;28;96771;-75
2022/07/22 21:47:39;;;;;;;3.85;1.80;;;;;;;;;;5005478;28;97199;-77
2022/07/22 21:50:05;;;;;;;4.22;1.83;;;;;;;;;;5005004;28;95302;-77
2022/07/22 21:52:32;;;;;;;4.95;2.00;;;;;;;;;;5036823;28;96873;-75
2022/07/22 21:54:58;;;;;;;4.28;1.80;;;;;;;;;;5034504;28;95405;-74
2022/07/22 21:57:25;;;;;;;4.95;1.90;;;;;;;;;;5014649;28;97207;-75
2022/07/22 21:59:52;;;;;;;2.85;1.80;;;;;;;;;;4997980;28;97524;-75
2022/07/22 22:02:18;;;;;;;4.32;2.15;;;;;;;;;;5034450;28;95296;-74
2022/07/22 22:04:45;;;;;;;3.47;1.77;;;;;;;;;;5027185;28;96732;-75
2022/07/22 22:07:11;;;;;;;4.13;1.85;;;;;;;;;;5005972;28;97393;-75
2022/07/22 22:09:37;;;;;;;4.38;1.67;;;;;;;;;;4994285;28;95303;-74
2022/07/22 22:12:04;;;;;;;3.03;1.80;;;;;;;;;;4994551;28;96897;-75
2022/07/22 22:14:30;;;;;;;5.22;1.90;;;;;;;;;;4999628;28;95370;-75
2022/07/22 22:16:56;;;;;;;5.00;1.88;;;;;;;;;;5011159;28;96857;-76
2022/07/22 22:19:23;;;;;;;4.40;1.70;;;;;;;;;;5004771;28;97802;-74
2022/07/22 22:21:49;;;;;;;4.60;1.80;;;;;;;;;;5033818;28;95432;-74
2022/07/22 22:24:15;;;;;;;7.20;1.98;;;;;;;;;;5017648;28;96731;-74
2022/07/22 22:26:43;;;;;;;3.85;1.90;;;;;;;;;;5032314;28;97412;-75
2022/07/22 22:29:09;;;;;;;7.35;2.10;;;;;;;;;;5026870;28;96069;-74
2022/07/22 22:31:35;;;;;;;4.45;1.85;;;;;;;;;;5013548;28;97245;-74
2022/07/22 22:34:03;;;;;;;8.73;1.70;;;;;;;;;;5014594;28;97321;-74
2022/07/22 22:36:29;;;;;;;5.78;2.13;;;;;;;;;;5031149;28;99019;-74
2022/07/22 22:38:57;;;;;;;8.18;2.20;;;;;;;;;;5030673;28;97768;-74
2022/07/22 22:41:24;;;;;;;8.35;2.20;;;;;;;;;;5013970;28;95347;-74
2022/07/22 22:43:51;;;;;;;6.97;2.30;;;;;;;;;;5013708;28;96516;-74
2022/07/22 22:46:17;;;;;;;4.55;2.25;;;;;;;;;;5012012;28;97404;-74
2022/07/22 22:48:44;;;;;;;7.35;2.35;;;;;;;;;;5013393;28;95306;-73
2022/07/22 22:51:10;;;;;;;4.20;2.20;;;;;;;;;;5022155;28;96811;-75
2022/07/22 22:53:36;;;;;;;5.82;2.25;;;;;;;;;;5030446;28;97687;-74
2022/07/22 22:56:05;;;;;;;5.53;2.28;;;;;;;;;;5015013;28;95363;-74
2022/07/22 22:58:31;;;;;;;4.60;2.10;;;;;;;;;;4997938;28;97318;-74
2022/07/22 23:00:57;;;;;;;12.32;2.13;;;;;;;;;;5012512;28;95266;-73
2022/07/22 23:03:24;;;;;;;6.15;2.17;;;;;;;;;;5021528;28;96883;-74
2022/07/22 23:05:50;;;;;;;7.97;2.45;;;;;;;;;;5032500;28;97656;-74
2022/07/22 23:08:16;;;;;;;6.40;2.40;;;;;;;;;;5032869;28;95456;-74
2022/07/22 23:10:43;;;;;;;4.70;2.40;;;;;;;;;;5035655;27;96955;-76
2022/07/22 23:13:09;;;;;;;3.70;2.15;;;;;;;;;;5031113;28;97389;-73
2022/07/22 23:15:36;;;;;;;9.38;2.30;;;;;;;;;;5047939;27;96314;-75
2022/07/22 23:18:02;;;;;;;8.68;2.45;;;;;;;;;;5055897;27;96861;-75
2022/07/22 23:23:14;;;;;;;5.93;2.67;;;;;;;;;;5032577;28;97042;-75
2022/07/22 23:25:40;;;;;;;5.97;3.00;;;;;;;;;;5031690;28;98649;-75
2022/07/22 23:28:19;;;;;;;5.95;2.92;;;;;;;;;;5028606;28;97290;-75
2022/07/22 23:30:45;;;;;;;4.82;2.78;;;;;;;;;;5031784;28;96809;-76
2022/07/22 23:33:12;;;;;;;9.20;2.78;;;;;;;;;;5031851;28;97449;-75
2022/07/22 23:35:38;;;;;;;5.10;2.83;;;;;;;;;;5032868;28;95123;-75
2022/07/22 23:38:05;;;;;;;6.07;2.80;;;;;;;;;;5031205;28;96785;-74
2022/07/22 23:40:31;;;;;;;4.78;2.58;;;;;;;;;;5035218;28;97343;-75
2022/07/22 23:42:58;;;;;;;6.15;2.70;;;;;;;;;;5035869;27;96861;-75
2022/07/22 23:45:24;;;;;;;7.85;3.00;;;;;;;;;;5032232;28;97699;-74
2022/07/22 23:47:51;;;;;;;5.70;3.28;;;;;;;;;;5031745;28;95405;-75
2022/07/22 23:50:17;;;;;;;14.90;3.40;;;;;;;;;;5031512;28;96840;-74
2022/07/22 23:52:44;;;;;;;10.65;3.35;;;;;;;;;;5037795;27;97486;-75
2022/07/22 23:55:11;;;;;;;7.03;2.75;;;;;;;;;;5030739;28;95355;-75
2022/07/22 23:57:37;;;;;;;7.72;3.25;;;;;;;;;;5027739;28;96879;-75
